createdAt,value
2022-08-24T00:06:15.520Z,20.50
2022-08-24T00:08:45.058Z,20.50
2022-08-24T00:11:13.663Z,20.50
2022-08-24T00:13:42.334Z,20.50
2022-08-24T00:16:11.490Z,20.40
2022-08-24T00:18:40.401Z,20.40
2022-08-24T00:21:19.155Z,20.40
2022-08-24T00:24:16.454Z,20.40
2022-08-24T00:31:00.464Z,20.30
2022-08-24T00:37:45.829Z,20.30
2022-08-24T00:40:17.359Z,20.30
2022-08-24T00:46:53.130Z,20.20
2022-08-24T00:49:25.082Z,20.30
2022-08-24T00:52:22.443Z,20.20
2022-08-24T00:58:40.503Z,20.30
2022-08-24T01:01:09.976Z,20.30
2022-08-24T01:19:59.892Z,20.20
2022-08-24T01:26:22.424Z,20.30
2022-08-24T01:28:54.772Z,20.30
2022-08-24T01:35:06.819Z,20.20
2022-08-24T01:37:35.868Z,20.20
2022-08-24T01:40:08.095Z,20.20
2022-08-24T01:43:07.237Z,20.20
2022-08-24T01:49:51.626Z,20.20
2022-08-24T01:56:16.887Z,20.20
2022-08-24T01:58:46.639Z,20.20
2022-08-24T02:01:43.882Z,20.10
2022-08-24T02:04:13.134Z,20.10
2022-08-24T02:06:49.668Z,20.10
2022-08-24T02:13:33.919Z,20.00
2022-08-24T02:24:02.264Z,19.90
2022-08-24T02:30:56.109Z,19.90
2022-08-24T02:45:39.433Z,19.80
2022-08-24T02:48:08.779Z,19.80
2022-08-24T02:50:39.802Z,19.80
2022-08-24T02:57:52.365Z,19.80
2022-08-24T03:00:22.137Z,19.70
2022-08-24T03:06:39.146Z,19.70
2022-08-24T03:09:09.080Z,19.70
2022-08-24T03:12:30.282Z,19.70
2022-08-24T03:14:59.079Z,19.70
2022-08-24T03:17:27.594Z,19.70
2022-08-24T03:19:56.277Z,19.60
2022-08-24T03:26:09.168Z,19.70
2022-08-24T03:40:49.353Z,19.60
2022-08-24T03:43:38.184Z,19.60
2022-08-24T03:50:11.189Z,19.60
2022-08-24T03:53:10.580Z,19.60
2022-08-24T03:56:09.903Z,19.60
2022-08-24T03:58:42.707Z,19.60
2022-08-24T04:01:48.334Z,19.60
2022-08-24T04:08:31.541Z,19.60
2022-08-24T04:11:00.118Z,19.60
2022-08-24T04:13:32.131Z,19.60
2022-08-24T04:19:58.730Z,19.70
2022-08-24T04:22:40.408Z,19.70
2022-08-24T04:25:11.010Z,19.80
2022-08-24T04:27:41.709Z,19.80
2022-08-24T04:30:14.203Z,19.80
2022-08-24T04:37:27.064Z,19.80
2022-08-24T04:39:59.136Z,19.90
2022-08-24T04:42:37.533Z,19.90
2022-08-24T04:45:07.205Z,19.90
2022-08-24T04:47:36.334Z,20.00
2022-08-24T04:50:05.660Z,20.00
2022-08-24T04:53:23.497Z,20.00
2022-08-24T04:55:54.713Z,20.00
2022-08-24T04:58:23.570Z,20.00
2022-08-24T05:00:52.669Z,20.00
2022-08-24T05:07:35.843Z,20.10
2022-08-24T05:14:18.904Z,20.10
2022-08-24T05:16:52.978Z,20.20
2022-08-24T05:19:23.474Z,20.20
2022-08-24T05:21:59.722Z,20.30
2022-08-24T05:24:28.853Z,20.20
2022-08-24T05:27:06.217Z,20.30
2022-08-24T05:29:37.479Z,20.30
2022-08-24T05:32:36.621Z,20.40
2022-08-24T05:35:58.032Z,20.40
2022-08-24T05:43:17.440Z,20.50
2022-08-24T05:45:47.868Z,20.60
2022-08-24T05:48:16.931Z,20.60
2022-08-24T05:51:29.392Z,20.70
2022-08-24T05:54:05.150Z,20.70
2022-08-24T05:57:16.308Z,20.80
2022-08-24T05:59:56.522Z,20.80
2022-08-24T06:06:40.475Z,21.00
2022-08-24T06:09:12.048Z,21.10
2022-08-24T06:18:09.375Z,21.60
2022-08-24T06:26:23.214Z,21.80
2022-08-24T06:32:59.899Z,22.10
2022-08-24T06:35:34.976Z,22.10
2022-08-24T06:38:04.601Z,22.10
2022-08-24T06:40:34.165Z,22.00
2022-08-24T06:43:05.305Z,22.00
2022-08-24T06:45:43.782Z,22.00
2022-08-24T06:48:18.268Z,22.00
2022-08-24T06:50:47.515Z,22.10
2022-08-24T06:53:16.411Z,22.10
2022-08-24T11:29:59.372Z,24.40
2022-08-24T11:32:33.367Z,24.60
2022-08-24T11:35:03.633Z,24.70
2022-08-24T11:37:33.372Z,24.80
2022-08-24T11:40:02.530Z,24.80
2022-08-24T11:42:37.457Z,24.70
2022-08-24T11:45:11.379Z,24.70
2022-08-24T11:47:45.107Z,24.70
2022-08-24T11:50:21.319Z,24.70
2022-08-24T11:52:54.378Z,24.80
2022-08-24T11:55:25.736Z,24.90
2022-08-24T11:57:58.511Z,24.90
2022-08-24T12:00:34.380Z,24.90
2022-08-24T12:03:06.564Z,24.90
2022-08-24T12:05:39.710Z,24.90
2022-08-24T12:08:12.118Z,24.80
2022-08-24T12:10:44.769Z,24.90
2022-08-24T12:13:20.974Z,25.00
2022-08-24T12:15:54.527Z,25.00
2022-08-24T12:18:28.323Z,25.00
2022-08-24T12:20:57.958Z,25.00
2022-08-24T12:23:34.238Z,25.00
2022-08-24T12:26:04.662Z,25.10
2022-08-24T12:28:37.674Z,25.10
2022-08-24T12:31:12.878Z,24.90
2022-08-24T12:33:46.902Z,24.90
2022-08-24T12:36:18.946Z,24.80
2022-08-24T12:38:51.577Z,24.70
2022-08-24T12:41:21.890Z,24.70
2022-08-24T12:43:53.206Z,24.60
2022-08-24T12:46:24.763Z,24.60
2022-08-24T12:48:55.325Z,24.50
2022-08-24T12:51:26.812Z,24.60
2022-08-24T12:54:13.839Z,24.60
2022-08-24T12:57:06.626Z,24.70
2022-08-24T12:59:38.496Z,24.70
2022-08-24T13:02:26.493Z,24.90
2022-08-24T13:04:58.333Z,25.00
2022-08-24T13:07:31.731Z,25.00
2022-08-24T13:10:10.078Z,25.00
2022-08-24T13:13:10.567Z,25.00
2022-08-24T13:15:56.723Z,24.90
2022-08-24T13:18:47.383Z,24.80
2022-08-24T13:21:35.208Z,24.70
2022-08-24T13:24:22.130Z,24.70
2022-08-24T13:26:50.716Z,24.70
2022-08-24T13:29:19.133Z,24.80
2022-08-24T13:31:52.597Z,24.90
2022-08-24T13:34:44.405Z,24.90
2022-08-24T13:37:16.044Z,25.00
2022-08-24T13:39:59.324Z,25.00
2022-08-24T13:42:46.495Z,25.00
2022-08-24T13:45:33.120Z,25.00
2022-08-24T13:48:05.499Z,24.90
2022-08-24T13:50:39.766Z,24.80
2022-08-24T13:53:29.101Z,24.80
2022-08-24T13:56:12.903Z,24.70
2022-08-24T13:58:44.120Z,24.60
2022-08-24T14:01:25.488Z,24.60
2022-08-24T14:04:00.192Z,24.50
2022-08-24T14:06:36.510Z,24.50
2022-08-24T14:09:15.000Z,24.30
2022-08-24T14:11:54.186Z,24.20
2022-08-24T14:18:31.188Z,24.10
2022-08-24T14:21:08.270Z,24.10
2022-08-24T14:23:48.345Z,24.00
2022-08-24T14:26:52.959Z,24.00
2022-08-24T14:29:42.082Z,23.90
2022-08-24T14:32:35.010Z,23.80
2022-08-24T14:35:06.871Z,23.80
2022-08-24T14:37:41.443Z,23.70
2022-08-24T14:40:17.841Z,23.70
2022-08-24T14:42:48.650Z,23.60
2022-08-24T14:45:20.292Z,23.60
2022-08-24T14:47:57.615Z,23.60
2022-08-24T14:50:31.520Z,23.60
2022-08-24T14:53:05.252Z,23.70
2022-08-24T14:55:38.242Z,23.80
2022-08-24T14:58:17.534Z,23.90
2022-08-24T15:00:54.267Z,23.90
2022-08-24T15:03:34.533Z,23.90
2022-08-24T15:06:26.202Z,23.90
2022-08-24T15:09:06.308Z,23.80
2022-08-24T15:11:37.706Z,23.80
2022-08-24T15:14:06.988Z,23.70
2022-08-24T15:16:44.644Z,23.70
2022-08-24T15:19:27.454Z,23.70
2022-08-24T15:21:58.231Z,23.80
2022-08-24T15:24:35.349Z,23.80
2022-08-24T15:27:11.144Z,23.80
2022-08-24T15:29:48.780Z,23.80
2022-08-24T15:32:17.748Z,23.80
2022-08-24T15:34:48.946Z,23.80
2022-08-24T15:37:19.006Z,23.80
2022-08-24T15:39:47.827Z,23.70
2022-08-24T15:42:44.780Z,23.70
2022-08-24T15:45:14.824Z,23.70
2022-08-24T15:47:48.617Z,23.70
2022-08-24T15:50:25.773Z,23.60
2022-08-24T15:53:12.955Z,23.50
2022-08-24T15:55:42.760Z,23.40
2022-08-24T15:58:29.090Z,23.40
2022-08-24T16:01:19.632Z,23.30
2022-08-24T16:03:54.294Z,23.30
2022-08-24T16:06:27.437Z,23.30
2022-08-24T16:08:59.297Z,23.30
2022-08-24T16:15:10.655Z,23.20
2022-08-24T16:18:07.933Z,23.10
2022-08-24T16:20:38.708Z,23.10
2022-08-24T16:23:09.155Z,23.10
2022-08-24T16:25:42.939Z,23.10
2022-08-24T16:28:14.649Z,23.00
2022-08-24T16:30:46.654Z,23.00
2022-08-24T16:33:43.334Z,22.90
2022-08-24T16:40:29.328Z,22.80
2022-08-24T16:47:43.027Z,22.70
2022-08-24T16:50:11.922Z,22.70
2022-08-24T16:56:55.943Z,22.60
2022-08-24T16:59:27.072Z,22.60
2022-08-24T17:02:00.152Z,22.50
2022-08-24T17:04:31.640Z,22.60
2022-08-24T17:07:00.106Z,22.50
2022-08-24T17:09:28.462Z,22.50
2022-08-24T17:11:58.257Z,22.50
2022-08-24T17:14:26.859Z,22.50
2022-08-24T17:16:55.348Z,22.50
2022-08-24T17:19:24.045Z,22.40
2022-08-24T17:21:53.196Z,22.30
2022-08-24T17:24:23.023Z,22.30
2022-08-24T17:26:55.933Z,22.30
2022-08-24T17:29:28.518Z,22.30
2022-08-24T17:32:53.304Z,22.30
2022-08-24T17:39:56.086Z,22.20
2022-08-24T17:46:31.029Z,22.10
2022-08-24T17:49:01.145Z,22.10
2022-08-24T19:39:32.010Z,20.90
2022-08-24T19:42:02.037Z,20.90
2022-08-24T19:45:16.753Z,20.70
2022-08-24T19:47:45.318Z,20.60
2022-08-24T19:50:15.018Z,20.60
2022-08-24T19:53:01.409Z,20.60
2022-08-24T19:55:31.191Z,20.70
2022-08-24T19:58:04.676Z,20.80
2022-08-24T20:00:36.491Z,20.90
2022-08-24T20:03:06.364Z,20.90
2022-08-24T20:05:37.641Z,20.90
2022-08-24T20:08:06.121Z,20.90
2022-08-24T20:10:36.325Z,21.00
2022-08-24T20:13:07.185Z,21.00
2022-08-24T20:15:35.930Z,21.00
2022-08-24T20:18:04.829Z,20.90
2022-08-24T20:20:33.929Z,20.90
2022-08-24T20:23:18.212Z,20.90
2022-08-24T20:25:50.408Z,20.80
2022-08-24T20:28:38.191Z,20.90
2022-08-24T20:31:07.264Z,20.80
2022-08-24T20:33:35.819Z,20.80
2022-08-24T20:36:04.663Z,20.80
2022-08-24T20:38:34.044Z,20.80
2022-08-24T20:41:03.951Z,20.80
2022-08-24T20:43:36.151Z,20.80
2022-08-24T20:46:05.035Z,20.80
2022-08-24T20:48:34.412Z,20.80
2022-08-24T20:51:03.102Z,20.80
2022-08-24T20:53:31.606Z,20.80
2022-08-24T20:56:07.451Z,20.70
2022-08-24T20:58:36.021Z,20.70
2022-08-24T21:01:04.580Z,20.70
2022-08-24T21:04:04.155Z,20.70
2022-08-24T21:06:51.984Z,20.70
2022-08-24T21:10:09.596Z,20.70
2022-08-24T21:12:45.998Z,20.60
2022-08-24T21:15:14.830Z,20.60
2022-08-24T21:17:43.858Z,20.60
2022-08-24T21:20:14.378Z,20.50
2022-08-24T21:23:39.485Z,20.40
